Time;durP1;ratioP1;P1;durP2;ratioP2;P2;SDS_P1;SDS_P2;PMS_P1;PMS_P2;Temp;Humidity;BMP_temperature;BMP_pressure;BME280_temperature;BME280_humidity;BME280_pressure;Samples;Min_cycle;Max_cycle;Signal;HPM_P1;HPM_P2
2023/12/16 00:01:23;;;;;;;21.30;8.27;;;;;;;;;;5054778;28;20040;-68
2023/12/16 00:03:48;;;;;;;28.70;8.50;;;;;;;;;;5073256;28;20028;-68
2023/12/16 00:06:14;;;;;;;28.83;8.57;;;;;;;;;;5070499;28;20110;-68
2023/12/16 00:08:39;;;;;;;24.20;7.82;;;;;;;;;;5053143;28;20017;-68
2023/12/16 00:11:05;;;;;;;28.75;8.75;;;;;;;;;;5053094;28;20462;-68
2023/12/16 00:13:30;;;;;;;25.70;7.70;;;;;;;;;;5053220;28;20391;-68
2023/12/16 00:15:56;;;;;;;27.13;8.27;;;;;;;;;;5053072;28;20033;-68
2023/12/16 00:18:22;;;;;;;25.05;7.95;;;;;;;;;;5053041;28;20029;-67
2023/12/16 00:20:47;;;;;;;18.85;7.72;;;;;;;;;;5052854;28;20025;-68
2023/12/16 00:23:13;;;;;;;21.38;6.70;;;;;;;;;;5052765;28;20470;-67
2023/12/16 00:25:39;;;;;;;22.75;5.90;;;;;;;;;;5052829;28;20037;-68
2023/12/16 00:28:04;;;;;;;29.33;7.38;;;;;;;;;;5052746;28;20493;-68
2023/12/16 00:30:29;;;;;;;22.45;6.50;;;;;;;;;;5052961;28;20025;-67
2023/12/16 00:32:55;;;;;;;19.48;6.78;;;;;;;;;;5052700;28;20529;-68
2023/12/16 00:35:20;;;;;;;19.85;6.72;;;;;;;;;;5052753;28;20021;-68
2023/12/16 00:37:46;;;;;;;23.98;6.63;;;;;;;;;;5052351;28;20025;-67
2023/12/16 00:40:12;;;;;;;20.38;6.88;;;;;;;;;;5052118;28;20079;-68
2023/12/16 00:42:37;;;;;;;24.02;8.60;;;;;;;;;;5052468;28;20529;-68
2023/12/16 00:45:04;;;;;;;24.02;6.35;;;;;;;;;;5052593;28;20116;-67
2023/12/16 00:47:29;;;;;;;21.52;6.90;;;;;;;;;;5052545;28;20033;-67
2023/12/16 00:49:55;;;;;;;19.10;6.63;;;;;;;;;;5052292;28;20123;-67
2023/12/16 00:52:20;;;;;;;19.30;6.78;;;;;;;;;;5045017;28;20021;-68
2023/12/16 00:54:47;;;;;;;17.83;6.57;;;;;;;;;;5045407;28;20052;-68
2023/12/16 00:57:12;;;;;;;25.13;7.13;;;;;;;;;;5052538;28;20028;-67
2023/12/16 00:59:38;;;;;;;21.30;6.50;;;;;;;;;;5052271;28;20359;-67
2023/12/16 01:02:04;;;;;;;15.80;5.57;;;;;;;;;;5051986;28;20536;-67
2023/12/16 01:04:29;;;;;;;19.02;6.03;;;;;;;;;;5052115;28;20041;-68
2023/12/16 01:06:55;;;;;;;18.33;5.85;;;;;;;;;;5052037;28;20021;-68
2023/12/16 01:09:20;;;;;;;19.77;5.80;;;;;;;;;;5052272;28;20048;-68
2023/12/16 01:11:45;;;;;;;19.17;6.47;;;;;;;;;;5052241;28;20021;-68
2023/12/16 01:14:11;;;;;;;15.68;5.93;;;;;;;;;;5052319;28;20021;-68
2023/12/16 01:16:36;;;;;;;20.40;5.40;;;;;;;;;;5052148;28;20470;-68
2023/12/16 01:19:02;;;;;;;20.30;6.03;;;;;;;;;;5051955;28;20033;-68
2023/12/16 01:21:27;;;;;;;22.98;6.18;;;;;;;;;;5052088;28;20044;-68
2023/12/16 01:23:53;;;;;;;26.45;6.30;;;;;;;;;;5052113;28;20029;-67
2023/12/16 01:26:19;;;;;;;20.30;6.40;;;;;;;;;;5050866;28;20412;-68
2023/12/16 01:28:44;;;;;;;15.50;6.07;;;;;;;;;;5052141;28;20025;-68
2023/12/16 01:31:10;;;;;;;29.20;6.72;;;;;;;;;;5052193;28;20021;-67
2023/12/16 01:33:35;;;;;;;18.50;5.82;;;;;;;;;;5051931;28;20032;-68
2023/12/16 01:36:01;;;;;;;17.55;5.43;;;;;;;;;;5052103;28;20033;-67
2023/12/16 01:38:26;;;;;;;21.30;6.20;;;;;;;;;;5052169;28;20021;-68
2023/12/16 01:40:52;;;;;;;18.25;6.20;;;;;;;;;;5051989;28;20044;-68
2023/12/16 01:43:17;;;;;;;21.70;6.30;;;;;;;;;;5052083;28;20462;-68
2023/12/16 01:45:43;;;;;;;20.60;6.05;;;;;;;;;;5051972;28;20029;-68
2023/12/16 01:48:10;;;;;;;18.98;5.65;;;;;;;;;;5051613;28;20390;-68
2023/12/16 01:50:36;;;;;;;16.58;5.20;;;;;;;;;;5053761;28;20028;-67
2023/12/16 01:53:04;;;;;;;23.30;5.45;;;;;;;;;;5055546;28;20098;-67
2023/12/16 01:55:30;;;;;;;26.80;6.22;;;;;;;;;;5055839;28;20036;-68
2023/12/16 01:57:56;;;;;;;17.90;5.57;;;;;;;;;;5055749;28;20390;-68
2023/12/16 02:00:23;;;;;;;18.05;5.53;;;;;;;;;;5055543;28;20024;-67
2023/12/16 02:02:49;;;;;;;17.65;4.97;;;;;;;;;;5068591;28;20024;-69
2023/12/16 02:05:14;;;;;;;24.38;6.13;;;;;;;;;;5075650;28;20365;-68
2023/12/16 02:07:40;;;;;;;15.55;6.15;;;;;;;;;;5061103;28;20096;-68
2023/12/16 02:10:05;;;;;;;15.00;5.32;;;;;;;;;;5055676;28;20071;-70
2023/12/16 02:12:34;;;;;;;23.20;6.20;;;;;;;;;;5055665;28;20025;-69
2023/12/16 02:15:00;;;;;;;14.63;5.43;;;;;;;;;;5055562;28;20025;-69
2023/12/16 02:17:26;;;;;;;18.02;5.68;;;;;;;;;;5055108;28;20047;-68
2023/12/16 02:19:54;;;;;;;18.23;5.55;;;;;;;;;;5055328;28;20107;-68
2023/12/16 02:22:20;;;;;;;17.70;5.97;;;;;;;;;;5055286;28;20040;-68
2023/12/16 02:24:46;;;;;;;16.75;5.78;;;;;;;;;;5055062;28;20155;-69
2023/12/16 02:27:11;;;;;;;19.08;5.50;;;;;;;;;;5055367;28;20029;-68
2023/12/16 02:29:37;;;;;;;18.33;5.85;;;;;;;;;;5055015;28;20443;-68
2023/12/16 02:32:03;;;;;;;17.50;5.78;;;;;;;;;;5054706;28;20043;-68
2023/12/16 02:34:30;;;;;;;17.58;5.43;;;;;;;;;;5055126;28;20028;-69
2023/12/16 02:36:55;;;;;;;20.55;6.75;;;;;;;;;;5054890;28;20025;-68
2023/12/16 02:39:21;;;;;;;23.88;6.45;;;;;;;;;;5054849;28;20033;-69
2023/12/16 02:41:47;;;;;;;21.20;5.95;;;;;;;;;;5054850;28;20052;-67
2023/12/16 02:44:12;;;;;;;24.27;5.88;;;;;;;;;;5054746;28;20028;-68
2023/12/16 02:46:37;;;;;;;19.95;5.40;;;;;;;;;;5053150;28;20043;-68
2023/12/16 02:49:03;;;;;;;22.77;5.93;;;;;;;;;;5054927;28;20025;-68
2023/12/16 02:51:29;;;;;;;19.27;5.60;;;;;;;;;;5054573;28;20028;-69
2023/12/16 02:53:55;;;;;;;15.80;5.85;;;;;;;;;;5054333;28;20405;-68
2023/12/16 02:56:21;;;;;;;19.50;5.10;;;;;;;;;;5054709;28;20075;-68
2023/12/16 02:58:47;;;;;;;22.23;5.60;;;;;;;;;;5054486;28;20029;-69
2023/12/16 03:01:12;;;;;;;20.10;5.28;;;;;;;;;;5054010;28;20037;-68
2023/12/16 03:03:39;;;;;;;23.33;5.70;;;;;;;;;;5074311;28;20028;-68
2023/12/16 03:06:05;;;;;;;24.95;5.82;;;;;;;;;;5072902;28;20028;-68
2023/12/16 03:08:31;;;;;;;22.73;5.95;;;;;;;;;;5054514;28;20115;-68
2023/12/16 03:10:56;;;;;;;16.63;5.20;;;;;;;;;;5054209;28;20059;-69
2023/12/16 03:13:22;;;;;;;11.73;4.63;;;;;;;;;;5054326;28;20112;-69
2023/12/16 03:15:47;;;;;;;15.40;5.93;;;;;;;;;;5054029;28;20033;-68
2023/12/16 03:18:12;;;;;;;21.23;6.28;;;;;;;;;;5054258;28;20025;-68
2023/12/16 03:20:38;;;;;;;18.02;5.43;;;;;;;;;;5054198;28;20536;-68
2023/12/16 03:23:03;;;;;;;15.60;5.07;;;;;;;;;;5054262;28;20029;-68
2023/12/16 03:25:29;;;;;;;19.60;5.50;;;;;;;;;;5054017;28;20036;-68
2023/12/16 03:27:54;;;;;;;20.23;4.85;;;;;;;;;;5054085;28;20025;-68
2023/12/16 03:30:20;;;;;;;17.73;5.15;;;;;;;;;;5052370;28;20032;-68
2023/12/16 03:32:45;;;;;;;16.83;4.43;;;;;;;;;;5054005;28;20086;-69
2023/12/16 03:35:11;;;;;;;13.65;4.50;;;;;;;;;;5054157;28;20017;-68
2023/12/16 03:37:36;;;;;;;16.63;5.20;;;;;;;;;;5054040;28;20082;-69
2023/12/16 03:40:02;;;;;;;13.90;4.88;;;;;;;;;;5052488;28;20033;-68
2023/12/16 03:42:27;;;;;;;18.20;4.43;;;;;;;;;;5053921;28;20108;-68
2023/12/16 03:44:53;;;;;;;14.15;4.78;;;;;;;;;;5053352;28;20055;-68
2023/12/16 03:47:19;;;;;;;18.55;4.68;;;;;;;;;;5053553;28;20029;-68
2023/12/16 03:49:44;;;;;;;22.35;4.80;;;;;;;;;;5053622;28;20060;-68
2023/12/16 03:52:11;;;;;;;17.13;4.55;;;;;;;;;;5053178;28;20370;-68
2023/12/16 03:54:37;;;;;;;20.25;4.82;;;;;;;;;;5053346;28;20056;-68
2023/12/16 03:57:03;;;;;;;15.95;4.35;;;;;;;;;;5053601;28;20029;-68
2023/12/16 03:59:28;;;;;;;16.70;4.45;;;;;;;;;;5053156;28;20032;-68
2023/12/16 04:01:54;;;;;;;23.27;4.45;;;;;;;;;;5059130;28;20028;-69
2023/12/16 04:04:19;;;;;;;12.82;3.83;;;;;;;;;;5073331;28;20020;-68
2023/12/16 04:06:45;;;;;;;23.55;4.97;;;;;;;;;;5064743;28;20434;-69
2023/12/16 04:09:11;;;;;;;13.38;3.70;;;;;;;;;;5053355;28;20021;-68
2023/12/16 04:11:36;;;;;;;16.65;4.70;;;;;;;;;;5053200;28;20423;-68
2023/12/16 04:14:02;;;;;;;17.65;4.15;;;;;;;;;;5051797;28;20129;-68
2023/12/16 04:16:27;;;;;;;20.75;4.45;;;;;;;;;;5053188;28;20071;-67
2023/12/16 04:18:53;;;;;;;13.13;3.15;;;;;;;;;;5052981;28;20025;-68
2023/12/16 04:21:18;;;;;;;16.83;4.20;;;;;;;;;;5053152;28;20386;-68
2023/12/16 04:23:44;;;;;;;14.30;3.08;;;;;;;;;;5053136;28;20025;-68
2023/12/16 04:26:09;;;;;;;9.80;2.90;;;;;;;;;;5052856;28;20462;-69
2023/12/16 04:28:35;;;;;;;11.77;3.45;;;;;;;;;;5052591;28;20067;-69
2023/12/16 04:31:00;;;;;;;12.70;4.00;;;;;;;;;;5052803;28;20025;-68
2023/12/16 04:33:25;;;;;;;16.08;4.18;;;;;;;;;;5052883;28;20025;-69
2023/12/16 04:35:51;;;;;;;19.13;3.88;;;;;;;;;;5051544;28;20489;-68
2023/12/16 04:38:16;;;;;;;16.05;4.40;;;;;;;;;;5052408;28;20021;-68
2023/12/16 04:40:41;;;;;;;16.05;3.25;;;;;;;;;;5052597;28;20147;-68
2023/12/16 04:43:07;;;;;;;10.40;3.13;;;;;;;;;;5052562;28;20375;-68
2023/12/16 04:45:33;;;;;;;11.02;3.33;;;;;;;;;;5051236;28;20052;-68
2023/12/16 04:47:58;;;;;;;11.02;3.30;;;;;;;;;;5052343;28;20041;-69
2023/12/16 04:50:23;;;;;;;13.88;3.60;;;;;;;;;;5052547;28;20047;-68
2023/12/16 04:52:49;;;;;;;12.23;2.88;;;;;;;;;;5052493;28;20041;-68
2023/12/16 04:55:15;;;;;;;15.65;2.85;;;;;;;;;;5051363;28;20029;-68
2023/12/16 04:57:40;;;;;;;15.55;3.85;;;;;;;;;;5052463;28;20056;-68
2023/12/16 05:00:07;;;;;;;10.30;2.90;;;;;;;;;;5052070;28;20044;-68
2023/12/16 05:02:33;;;;;;;14.00;3.80;;;;;;;;;;5063293;28;20042;-68
2023/12/16 05:04:58;;;;;;;14.68;3.15;;;;;;;;;;5071045;28;20025;-68
2023/12/16 05:07:24;;;;;;;11.27;2.75;;;;;;;;;;5060086;28;20033;-68
2023/12/16 05:09:49;;;;;;;14.05;2.90;;;;;;;;;;5052167;28;20028;-68
2023/12/16 05:12:14;;;;;;;16.73;2.78;;;;;;;;;;5050761;28;20052;-68
2023/12/16 05:14:40;;;;;;;8.30;2.63;;;;;;;;;;5052373;28;20046;-68
2023/12/16 05:17:05;;;;;;;9.68;3.00;;;;;;;;;;5052637;28;20052;-68
2023/12/16 05:19:31;;;;;;;11.25;2.50;;;;;;;;;;5052311;28;20108;-68
2023/12/16 05:21:56;;;;;;;9.30;2.20;;;;;;;;;;5052256;28;20458;-68
2023/12/16 05:24:22;;;;;;;10.60;2.60;;;;;;;;;;5052152;28;20079;-68
2023/12/16 05:26:47;;;;;;;10.07;2.58;;;;;;;;;;5056007;28;20359;-68
2023/12/16 05:29:12;;;;;;;9.18;2.80;;;;;;;;;;5056198;28;20024;-68
2023/12/16 05:31:38;;;;;;;15.77;2.95;;;;;;;;;;5056201;28;20021;-68
2023/12/16 05:34:03;;;;;;;8.98;3.55;;;;;;;;;;5056268;28;20412;-68
2023/12/16 05:36:29;;;;;;;10.00;2.50;;;;;;;;;;5056025;28;20037;-67
2023/12/16 05:38:54;;;;;;;14.25;2.70;;;;;;;;;;5056099;28;20102;-68
2023/12/16 05:41:20;;;;;;;11.30;3.03;;;;;;;;;;5055955;28;20021;-67
2023/12/16 05:43:45;;;;;;;8.60;3.38;;;;;;;;;;5055934;28;20031;-68
2023/12/16 05:46:11;;;;;;;13.80;3.35;;;;;;;;;;5055937;28;20051;-68
2023/12/16 05:48:36;;;;;;;11.23;2.60;;;;;;;;;;5055652;28;20170;-69
2023/12/16 05:51:03;;;;;;;13.68;3.17;;;;;;;;;;5055833;28;20462;-68
2023/12/16 05:53:28;;;;;;;10.52;2.92;;;;;;;;;;5055618;28;20044;-68
2023/12/16 05:55:54;;;;;;;9.32;2.90;;;;;;;;;;5055601;28;20458;-68
2023/12/16 05:58:19;;;;;;;7.03;2.80;;;;;;;;;;5055774;28;20634;-69
2023/12/16 06:00:44;;;;;;;9.82;2.58;;;;;;;;;;5055527;28;20079;-68
2023/12/16 06:03:10;;;;;;;11.57;2.95;;;;;;;;;;5071994;28;20461;-68
2023/12/16 06:05:35;;;;;;;10.73;2.72;;;;;;;;;;5075503;28;20111;-68
2023/12/16 06:08:01;;;;;;;15.38;3.03;;;;;;;;;;5057962;28;20029;-68
2023/12/16 06:10:26;;;;;;;11.65;3.65;;;;;;;;;;5055183;28;20016;-68
2023/12/16 06:12:51;;;;;;;9.95;3.60;;;;;;;;;;5055327;28;20033;-68
2023/12/16 06:15:17;;;;;;;16.67;4.10;;;;;;;;;;5055111;28;20064;-68
2023/12/16 06:17:42;;;;;;;16.70;3.90;;;;;;;;;;5055520;28;20443;-68
2023/12/16 06:20:08;;;;;;;13.18;3.80;;;;;;;;;;5055184;28;20025;-68
2023/12/16 06:22:33;;;;;;;16.02;4.68;;;;;;;;;;5055390;28;20032;-67
2023/12/16 06:24:59;;;;;;;17.17;4.65;;;;;;;;;;5055066;28;20029;-68
2023/12/16 06:27:24;;;;;;;21.75;4.03;;;;;;;;;;5055345;28;20463;-68
2023/12/16 06:29:49;;;;;;;31.77;8.48;;;;;;;;;;5055170;28;20037;-67
2023/12/16 06:32:15;;;;;;;16.23;5.78;;;;;;;;;;5055144;28;20039;-68
2023/12/16 06:34:41;;;;;;;18.35;5.65;;;;;;;;;;5055081;28;20072;-69
2023/12/16 06:37:06;;;;;;;13.77;4.43;;;;;;;;;;5053853;28;20017;-68
2023/12/16 06:39:31;;;;;;;15.48;5.28;;;;;;;;;;5054572;28;20021;-68
2023/12/16 06:41:57;;;;;;;12.43;4.55;;;;;;;;;;5055059;28;20368;-68
2023/12/16 06:44:22;;;;;;;16.90;4.70;;;;;;;;;;5054824;28;20065;-68
2023/12/16 06:46:48;;;;;;;10.88;4.18;;;;;;;;;;5054668;28;20017;-68
2023/12/16 06:49:13;;;;;;;16.02;4.68;;;;;;;;;;5054780;28;20450;-68
2023/12/16 06:51:39;;;;;;;18.55;4.88;;;;;;;;;;5054523;28;20028;-68
2023/12/16 06:54:04;;;;;;;16.38;5.40;;;;;;;;;;5054358;28;20076;-68
2023/12/16 06:56:30;;;;;;;18.38;5.72;;;;;;;;;;5047906;28;20132;-69
2023/12/16 06:58:55;;;;;;;17.13;5.30;;;;;;;;;;5037565;28;20021;-69
2023/12/16 07:01:24;;;;;;;18.05;5.78;;;;;;;;;;5055749;28;20531;-68
2023/12/16 07:03:49;;;;;;;15.18;4.47;;;;;;;;;;5066040;28;20382;-68
2023/12/16 07:06:18;;;;;;;12.02;5.07;;;;;;;;;;5052880;28;20029;-69
2023/12/16 07:08:44;;;;;;;12.50;4.05;;;;;;;;;;5054138;28;20090;-68
2023/12/16 07:11:12;;;;;;;14.48;4.28;;;;;;;;;;5054424;28;20432;-68
2023/12/16 07:13:38;;;;;;;13.57;4.78;;;;;;;;;;5035389;28;20025;-68
2023/12/16 07:16:04;;;;;;;14.30;5.10;;;;;;;;;;5033222;28;20022;-68
2023/12/16 07:18:30;;;;;;;23.60;4.72;;;;;;;;;;5034319;28;20037;-68
2023/12/16 07:20:56;;;;;;;23.08;5.95;;;;;;;;;;5034317;28;20083;-68
2023/12/16 07:23:21;;;;;;;13.10;4.50;;;;;;;;;;5034031;28;20108;-69
2023/12/16 07:25:46;;;;;;;15.07;4.35;;;;;;;;;;5034072;28;20032;-69
2023/12/16 07:28:12;;;;;;;16.77;4.10;;;;;;;;;;5034235;28;20113;-69
2023/12/16 07:30:37;;;;;;;9.90;3.80;;;;;;;;;;5051843;28;20360;-69
2023/12/16 07:33:03;;;;;;;10.02;4.13;;;;;;;;;;5049770;28;20016;-68
2023/12/16 07:35:28;;;;;;;12.50;3.92;;;;;;;;;;5042650;28;20379;-68
2023/12/16 07:37:54;;;;;;;10.52;4.65;;;;;;;;;;5045450;28;20112;-68
2023/12/16 07:40:20;;;;;;;18.63;3.90;;;;;;;;;;5053893;28;20053;-68
2023/12/16 07:42:45;;;;;;;11.77;4.50;;;;;;;;;;5037126;28;20471;-68
2023/12/16 07:45:11;;;;;;;11.50;4.65;;;;;;;;;;5033851;28;20025;-69
2023/12/16 07:47:38;;;;;;;14.73;4.57;;;;;;;;;;5043668;28;20040;-68
2023/12/16 07:50:04;;;;;;;16.10;4.80;;;;;;;;;;5047313;28;20029;-69
2023/12/16 07:52:30;;;;;;;12.80;4.45;;;;;;;;;;5041683;28;20471;-69
2023/12/16 07:54:55;;;;;;;11.32;3.92;;;;;;;;;;5053640;28;20040;-68
2023/12/16 07:57:20;;;;;;;11.80;4.68;;;;;;;;;;5053638;28;20471;-68
2023/12/16 07:59:46;;;;;;;17.38;6.07;;;;;;;;;;5053506;28;20032;-68
2023/12/16 08:02:11;;;;;;;11.63;3.85;;;;;;;;;;5061609;28;20146;-68
2023/12/16 08:04:40;;;;;;;9.90;3.78;;;;;;;;;;5073160;28;20031;-69
2023/12/16 08:07:06;;;;;;;15.13;4.88;;;;;;;;;;5067041;28;20498;-69
2023/12/16 08:09:32;;;;;;;9.57;4.25;;;;;;;;;;5053195;28;20079;-68
2023/12/16 08:12:00;;;;;;;11.48;4.35;;;;;;;;;;5053376;28;20055;-69
2023/12/16 08:14:25;;;;;;;12.90;4.13;;;;;;;;;;5053193;28;20037;-68
2023/12/16 08:16:51;;;;;;;17.50;4.38;;;;;;;;;;5052710;28;20029;-69
2023/12/16 08:19:17;;;;;;;10.95;3.83;;;;;;;;;;5053335;28;20029;-68
2023/12/16 08:21:42;;;;;;;11.43;4.72;;;;;;;;;;5053558;28;20029;-68
2023/12/16 08:24:08;;;;;;;12.93;3.90;;;;;;;;;;5053891;28;20021;-68
2023/12/16 08:26:33;;;;;;;17.73;4.68;;;;;;;;;;5052973;28;20021;-68
2023/12/16 08:28:59;;;;;;;11.27;3.78;;;;;;;;;;5053281;28;20532;-67
2023/12/16 08:31:24;;;;;;;15.05;4.22;;;;;;;;;;5053044;28;20043;-68
2023/12/16 08:33:50;;;;;;;11.57;4.47;;;;;;;;;;5053049;28;20033;-69
2023/12/16 08:36:15;;;;;;;19.35;4.13;;;;;;;;;;5052633;28;20388;-68
2023/12/16 08:38:41;;;;;;;11.15;4.22;;;;;;;;;;5052722;28;20029;-68
2023/12/16 08:41:08;;;;;;;17.60;4.60;;;;;;;;;;5047496;28;20471;-69
2023/12/16 08:43:34;;;;;;;12.90;4.47;;;;;;;;;;5033004;28;20052;-69
2023/12/16 08:46:00;;;;;;;14.20;3.97;;;;;;;;;;5032831;28;20387;-68
2023/12/16 08:48:26;;;;;;;10.60;3.80;;;;;;;;;;5049552;28;20033;-68
2023/12/16 08:50:52;;;;;;;14.57;4.05;;;;;;;;;;5052660;28;20040;-68
2023/12/16 08:53:18;;;;;;;16.80;4.45;;;;;;;;;;5052595;28;20144;-69
2023/12/16 08:55:43;;;;;;;16.02;4.07;;;;;;;;;;5052960;28;20474;-69
2023/12/16 08:58:09;;;;;;;22.65;5.15;;;;;;;;;;5052623;28;20112;-69
2023/12/16 09:00:34;;;;;;;13.63;4.43;;;;;;;;;;5051729;28;20029;-68
2023/12/16 09:03:00;;;;;;;15.40;4.47;;;;;;;;;;5066986;28;20036;-68
2023/12/16 09:05:27;;;;;;;10.35;4.32;;;;;;;;;;5072252;28;20036;-69
2023/12/16 09:07:52;;;;;;;14.63;4.47;;;;;;;;;;5059667;28;20242;-68
2023/12/16 09:10:18;;;;;;;11.45;4.13;;;;;;;;;;5052287;28;20108;-68
2023/12/16 09:12:43;;;;;;;10.95;3.75;;;;;;;;;;5052520;28;20033;-69
2023/12/16 09:15:09;;;;;;;13.45;3.78;;;;;;;;;;5052450;28;20029;-68
2023/12/16 09:17:34;;;;;;;12.80;3.95;;;;;;;;;;5052218;28;20025;-68
2023/12/16 09:20:00;;;;;;;19.88;4.00;;;;;;;;;;5052199;28;20335;-68
2023/12/16 09:22:25;;;;;;;9.85;3.55;;;;;;;;;;5052120;28;20025;-68
2023/12/16 09:24:51;;;;;;;17.67;4.40;;;;;;;;;;5051644;28;20411;-68
2023/12/16 09:27:16;;;;;;;13.13;3.55;;;;;;;;;;5052565;28;20066;-68
2023/12/16 09:29:42;;;;;;;11.05;3.42;;;;;;;;;;5052201;28;20021;-68
2023/12/16 09:32:08;;;;;;;13.05;3.92;;;;;;;;;;5052052;28;20159;-67
2023/12/16 09:34:33;;;;;;;12.43;4.50;;;;;;;;;;5052183;28;20439;-68
2023/12/16 09:36:58;;;;;;;12.93;4.60;;;;;;;;;;5050834;28;20374;-68
2023/12/16 09:39:24;;;;;;;11.30;4.22;;;;;;;;;;5052217;28;20021;-68
2023/12/16 09:41:51;;;;;;;12.80;4.60;;;;;;;;;;5041175;28;20013;-68
2023/12/16 09:44:19;;;;;;;8.02;3.10;;;;;;;;;;5030987;28;20028;-68
2023/12/16 09:46:45;;;;;;;17.33;4.40;;;;;;;;;;5034924;28;20052;-68
2023/12/16 09:49:12;;;;;;;12.63;4.10;;;;;;;;;;5052028;28;20025;-68
2023/12/16 09:51:41;;;;;;;17.55;5.30;;;;;;;;;;5051914;28;20029;-68
2023/12/16 09:54:07;;;;;;;17.50;5.50;;;;;;;;;;5051867;28;20049;-68
2023/12/16 09:56:33;;;;;;;15.73;4.72;;;;;;;;;;5052141;28;20368;-68
2023/12/16 09:59:00;;;;;;;13.40;4.25;;;;;;;;;;5051930;28;20029;-68
2023/12/16 10:01:25;;;;;;;16.25;5.03;;;;;;;;;;5053131;28;20510;-68
2023/12/16 10:03:52;;;;;;;10.48;3.95;;;;;;;;;;5072050;28;20104;-68
2023/12/16 10:06:17;;;;;;;10.10;3.97;;;;;;;;;;5071960;28;20446;-69
2023/12/16 10:08:43;;;;;;;11.65;4.10;;;;;;;;;;5071699;28;20060;-68
2023/12/16 10:11:08;;;;;;;17.73;4.70;;;;;;;;;;5053719;28;20025;-68
2023/12/16 10:13:54;;;;;;;14.63;4.68;;;;;;;;;;5054378;28;20500;-68
2023/12/16 10:16:22;;;;;;;11.98;4.80;;;;;;;;;;5055355;28;20040;-68
2023/12/16 10:18:55;;;;;;;16.77;3.95;;;;;;;;;;5055390;28;20471;-68
2023/12/16 10:21:31;;;;;;;13.90;4.45;;;;;;;;;;5055588;28;20471;-68
2023/12/16 10:24:00;;;;;;;11.55;3.60;;;;;;;;;;5055321;28;20025;-68
2023/12/16 10:26:30;;;;;;;12.63;4.17;;;;;;;;;;5055359;28;20036;-69
2023/12/16 10:28:56;;;;;;;5.55;2.72;;;;;;;;;;5055257;28;20033;-68
2023/12/16 10:31:22;;;;;;;9.50;3.75;;;;;;;;;;5054828;28;20108;-68
2023/12/16 10:33:51;;;;;;;15.65;4.85;;;;;;;;;;5055268;28;20028;-68
2023/12/16 10:36:17;;;;;;;11.63;2.90;;;;;;;;;;5055132;28;20063;-68
2023/12/16 10:38:43;;;;;;;13.05;4.13;;;;;;;;;;5055065;28;20032;-68
2023/12/16 10:41:09;;;;;;;10.77;3.58;;;;;;;;;;5049681;28;20025;-69
2023/12/16 10:43:34;;;;;;;15.07;3.67;;;;;;;;;;5034808;28;20041;-69
2023/12/16 10:46:05;;;;;;;20.92;4.30;;;;;;;;;;5034789;28;20032;-69
2023/12/16 10:48:35;;;;;;;12.68;3.83;;;;;;;;;;5052630;28;20036;-68
2023/12/16 10:51:03;;;;;;;10.68;3.65;;;;;;;;;;5054783;28;20105;-69
2023/12/16 10:53:40;;;;;;;8.68;3.25;;;;;;;;;;5054767;28;20508;-68
2023/12/16 10:56:29;;;;;;;6.88;2.67;;;;;;;;;;5054973;28;20037;-69
2023/12/16 10:59:05;;;;;;;10.35;3.63;;;;;;;;;;5051102;28;20467;-69
2023/12/16 11:01:34;;;;;;;11.43;3.35;;;;;;;;;;5057426;28;20420;-69
2023/12/16 11:04:16;;;;;;;11.20;3.03;;;;;;;;;;5074987;28;20028;-69
2023/12/16 11:07:06;;;;;;;10.10;3.15;;;;;;;;;;5074522;28;20028;-69
2023/12/16 11:09:32;;;;;;;12.63;3.80;;;;;;;;;;5068695;28;20078;-69
2023/12/16 11:12:00;;;;;;;7.18;2.85;;;;;;;;;;5054691;28;20032;-68
2023/12/16 11:14:27;;;;;;;11.82;3.17;;;;;;;;;;5053410;28;20382;-69
2023/12/16 11:17:02;;;;;;;12.13;3.08;;;;;;;;;;5053733;28;20459;-70
2023/12/16 11:19:36;;;;;;;8.25;2.80;;;;;;;;;;5053537;28;20060;-69
2023/12/16 11:22:02;;;;;;;8.15;2.70;;;;;;;;;;5054280;28;20471;-69
2023/12/16 11:24:27;;;;;;;8.63;3.25;;;;;;;;;;5053792;28;20119;-69
2023/12/16 11:26:53;;;;;;;9.00;2.50;;;;;;;;;;5056123;28;20176;-69
2023/12/16 11:29:23;;;;;;;12.07;2.80;;;;;;;;;;5062893;28;20048;-69
2023/12/16 11:31:52;;;;;;;12.07;3.17;;;;;;;;;;5058458;28;20031;-69
2023/12/16 11:34:49;;;;;;;10.38;2.85;;;;;;;;;;5054484;28;20028;-68
2023/12/16 11:37:35;;;;;;;11.73;3.25;;;;;;;;;;5054329;28;20100;-69
2023/12/16 11:40:07;;;;;;;7.75;2.72;;;;;;;;;;5052474;28;20598;-68
2023/12/16 11:42:47;;;;;;;12.05;2.67;;;;;;;;;;5036719;28;20032;-69
2023/12/16 11:45:31;;;;;;;;;;;;;;;;;;5034301;28;20037;-68
2023/12/16 11:47:58;;;;;;;6.57;2.28;;;;;;;;;;5046476;28;19916;-68
2023/12/16 11:50:25;;;;;;;12.02;3.55;;;;;;;;;;5053460;28;20029;-68
2023/12/16 11:52:50;;;;;;;9.07;2.47;;;;;;;;;;5053161;28;20112;-69
2023/12/16 11:55:16;;;;;;;21.10;2.80;;;;;;;;;;5053788;28;20116;-68
2023/12/16 11:57:42;;;;;;;12.25;3.17;;;;;;;;;;5053390;28;20112;-68
2023/12/16 12:00:08;;;;;;;11.18;2.67;;;;;;;;;;5053458;28;20033;-68
2023/12/16 12:02:34;;;;;;;9.65;2.65;;;;;;;;;;5064256;28;20025;-68
2023/12/16 12:05:00;;;;;;;8.50;2.58;;;;;;;;;;5057977;28;20040;-68
2023/12/16 12:07:25;;;;;;;6.60;2.80;;;;;;;;;;5053321;28;20028;-69
2023/12/16 12:09:51;;;;;;;10.50;3.03;;;;;;;;;;5053160;28;20470;-69
2023/12/16 12:12:16;;;;;;;7.75;2.75;;;;;;;;;;5053020;28;20070;-69
2023/12/16 12:14:46;;;;;;;9.40;2.72;;;;;;;;;;5053106;28;20043;-69
2023/12/16 12:17:11;;;;;;;14.32;3.25;;;;;;;;;;5053263;28;20099;-69
2023/12/16 12:19:37;;;;;;;9.68;2.33;;;;;;;;;;5052933;28;20071;-68
2023/12/16 12:22:03;;;;;;;10.05;2.50;;;;;;;;;;5052996;28;20021;-68
2023/12/16 12:24:28;;;;;;;8.52;2.58;;;;;;;;;;5053096;28;20025;-68
2023/12/16 12:26:54;;;;;;;9.23;2.63;;;;;;;;;;5052683;28;20359;-69
2023/12/16 12:29:19;;;;;;;9.45;2.90;;;;;;;;;;5052686;28;20053;-69
2023/12/16 12:31:46;;;;;;;11.27;2.78;;;;;;;;;;5052665;28;20052;-69
2023/12/16 12:34:21;;;;;;;8.43;2.50;;;;;;;;;;5052068;28;20025;-69
2023/12/16 12:36:47;;;;;;;9.30;2.55;;;;;;;;;;5052624;28;20382;-68
2023/12/16 12:39:17;;;;;;;11.55;2.72;;;;;;;;;;5052761;28;20202;-69
2023/12/16 12:41:43;;;;;;;13.98;3.22;;;;;;;;;;5042759;28;20390;-68
2023/12/16 12:44:10;;;;;;;7.78;2.55;;;;;;;;;;5032856;28;20105;-68
2023/12/16 12:46:45;;;;;;;13.82;2.67;;;;;;;;;;5044989;28;20051;-68
2023/12/16 12:49:10;;;;;;;12.05;2.95;;;;;;;;;;5052386;28;20127;-68
2023/12/16 12:51:47;;;;;;;15.02;3.38;;;;;;;;;;5052590;28;20501;-69
2023/12/16 12:54:12;;;;;;;12.77;3.83;;;;;;;;;;5052209;28;20144;-68
2023/12/16 12:56:39;;;;;;;13.32;3.22;;;;;;;;;;5052285;28;20123;-68
2023/12/16 12:59:04;;;;;;;10.25;2.75;;;;;;;;;;5052453;28;20040;-68
2023/12/16 13:01:30;;;;;;;10.73;2.30;;;;;;;;;;5054727;28;20025;-69
2023/12/16 13:03:55;;;;;;;10.05;2.40;;;;;;;;;;5071293;28;20385;-69
2023/12/16 13:06:21;;;;;;;11.68;2.25;;;;;;;;;;5072394;28;20039;-69
2023/12/16 13:08:46;;;;;;;12.27;2.70;;;;;;;;;;5060285;28;20359;-69
2023/12/16 13:11:11;;;;;;;9.68;2.58;;;;;;;;;;5052016;28;20029;-69
2023/12/16 13:13:37;;;;;;;7.30;2.13;;;;;;;;;;5052464;28;20044;-68
2023/12/16 13:16:04;;;;;;;7.82;2.78;;;;;;;;;;5052462;28;20032;-68
2023/12/16 13:18:30;;;;;;;14.35;2.60;;;;;;;;;;5051251;28;20359;-68
2023/12/16 13:20:56;;;;;;;9.27;2.03;;;;;;;;;;5050960;28;20028;-69
2023/12/16 13:23:21;;;;;;;9.45;3.20;;;;;;;;;;5052493;28;20025;-69
2023/12/16 13:25:49;;;;;;;10.32;2.60;;;;;;;;;;5052155;28;20037;-69
2023/12/16 13:28:14;;;;;;;7.55;1.88;;;;;;;;;;5052386;28;20056;-68
2023/12/16 13:30:40;;;;;;;7.90;2.05;;;;;;;;;;5052064;28;20021;-69
2023/12/16 13:33:06;;;;;;;16.40;2.88;;;;;;;;;;5052316;28;20383;-69
2023/12/16 13:35:31;;;;;;;10.00;2.42;;;;;;;;;;5051814;28;20025;-70
2023/12/16 13:37:57;;;;;;;10.65;2.40;;;;;;;;;;5052196;28;20029;-70
2023/12/16 13:40:22;;;;;;;9.85;2.50;;;;;;;;;;5052030;28;20029;-69
2023/12/16 13:42:48;;;;;;;12.90;2.70;;;;;;;;;;5052218;28;20032;-69
2023/12/16 13:45:13;;;;;;;13.55;3.45;;;;;;;;;;5052157;28;20033;-69
2023/12/16 13:47:39;;;;;;;15.32;3.35;;;;;;;;;;5055851;28;20214;-69
2023/12/16 13:50:05;;;;;;;13.55;2.33;;;;;;;;;;5055854;28;20048;-69
2023/12/16 13:52:31;;;;;;;11.43;2.50;;;;;;;;;;5055882;28;20025;-69
2023/12/16 13:54:56;;;;;;;10.25;2.63;;;;;;;;;;5055713;28;20133;-69
2023/12/16 13:57:22;;;;;;;9.50;2.55;;;;;;;;;;5056020;28;20029;-68
2023/12/16 13:59:48;;;;;;;8.05;2.10;;;;;;;;;;5056030;28;20047;-68
2023/12/16 14:02:14;;;;;;;10.25;2.53;;;;;;;;;;5064387;28;20028;-69
2023/12/16 14:04:40;;;;;;;6.13;2.25;;;;;;;;;;5075771;28;20021;-69
2023/12/16 14:07:06;;;;;;;6.47;2.05;;;;;;;;;;5075502;28;20035;-69
2023/12/16 14:09:31;;;;;;;8.02;2.33;;;;;;;;;;5069553;28;20025;-69
2023/12/16 14:11:57;;;;;;;15.60;2.78;;;;;;;;;;5055847;28;20352;-68
2023/12/16 14:14:22;;;;;;;8.13;2.28;;;;;;;;;;5054550;28;20017;-69
2023/12/16 14:16:48;;;;;;;9.52;2.63;;;;;;;;;;5055360;28;20124;-69
2023/12/16 14:19:13;;;;;;;9.82;2.25;;;;;;;;;;5055586;28;20028;-69
2023/12/16 14:21:38;;;;;;;17.38;4.63;;;;;;;;;;5055570;28;20017;-69
2023/12/16 14:24:04;;;;;;;9.20;3.38;;;;;;;;;;5054567;28;20040;-68
2023/12/16 14:26:30;;;;;;;9.20;2.95;;;;;;;;;;5055331;28;20032;-69
2023/12/16 14:28:55;;;;;;;14.52;4.18;;;;;;;;;;5055222;28;20029;-68